createdAt,value
2018-03-19T00:02:19.973Z,19.63
2018-03-19T00:04:47.588Z,16.07
2018-03-19T00:07:15.196Z,23.20
2018-03-19T00:09:42.720Z,17.97
2018-03-19T00:12:10.305Z,17.40
2018-03-19T00:14:37.885Z,19.27
2018-03-19T00:17:05.448Z,22.57
2018-03-19T00:19:32.976Z,17.27
2018-03-19T00:22:00.578Z,17.50
2018-03-19T00:24:28.119Z,17.33
2018-03-19T00:26:55.691Z,17.57
2018-03-19T00:29:23.241Z,20.23
2018-03-19T00:31:50.853Z,17.80
2018-03-19T00:34:18.424Z,19.40
2018-03-19T00:36:45.983Z,18.30
2018-03-19T00:39:14.364Z,20.47
2018-03-19T00:41:41.895Z,17.17
2018-03-19T00:44:09.471Z,22.13
2018-03-19T00:46:37.038Z,16.67
2018-03-19T00:49:04.676Z,22.50
2018-03-19T00:51:32.220Z,22.20
2018-03-19T00:53:59.791Z,22.27
2018-03-19T00:56:27.372Z,19.27
2018-03-19T00:58:54.932Z,20.33
2018-03-19T01:01:22.603Z,19.83
2018-03-19T01:03:50.140Z,20.47
2018-03-19T01:06:18.477Z,17.17
2018-03-19T01:08:45.997Z,18.63
2018-03-19T01:11:13.565Z,21.60
2018-03-19T01:13:41.092Z,23.80
2018-03-19T01:16:08.960Z,22.40
2018-03-19T01:18:37.358Z,21.70
2018-03-19T01:21:05.644Z,22.77
2018-03-19T01:23:33.279Z,18.87
2018-03-19T01:26:00.846Z,19.53
2018-03-19T01:28:28.448Z,17.70
2018-03-19T01:30:56.050Z,19.60
2018-03-19T01:33:23.624Z,18.93
2018-03-19T01:35:51.208Z,21.07
2018-03-19T01:38:18.786Z,18.90
2018-03-19T01:40:46.379Z,19.20
2018-03-19T01:43:13.968Z,24.83
2018-03-19T01:45:41.580Z,22.97
2018-03-19T01:48:09.140Z,16.97
2018-03-19T01:50:36.701Z,18.13
2018-03-19T01:53:04.211Z,17.83
2018-03-19T01:55:31.821Z,19.47
2018-03-19T01:57:59.366Z,16.70
2018-03-19T02:00:26.982Z,18.63
2018-03-19T02:02:54.541Z,19.37
2018-03-19T02:05:22.888Z,22.70
2018-03-19T02:07:50.420Z,19.57
2018-03-19T02:10:17.949Z,19.57
2018-03-19T02:12:46.276Z,19.47
2018-03-19T02:15:13.873Z,15.00
2018-03-19T02:17:41.446Z,19.97
2018-03-19T02:20:09.040Z,19.50
2018-03-19T02:22:36.605Z,19.80
2018-03-19T02:25:04.147Z,18.30
2018-03-19T02:27:31.714Z,20.67
2018-03-19T02:29:59.273Z,17.40
2018-03-19T02:32:26.861Z,16.37
2018-03-19T02:34:54.421Z,18.87
2018-03-19T02:37:21.994Z,15.43
2018-03-19T02:39:50.426Z,18.87
2018-03-19T02:42:17.975Z,18.47
2018-03-19T02:44:45.562Z,20.53
2018-03-19T02:47:13.106Z,20.53
2018-03-19T02:49:40.654Z,16.63
2018-03-19T02:52:08.260Z,19.07
2018-03-19T02:54:36.594Z,17.40
2018-03-19T02:57:04.165Z,19.23
2018-03-19T02:59:31.722Z,18.67
2018-03-19T03:01:59.274Z,16.90
2018-03-19T03:04:26.858Z,22.10
2018-03-19T03:06:54.387Z,18.03
2018-03-19T03:09:22.711Z,17.93
2018-03-19T03:11:50.306Z,18.20
2018-03-19T03:14:17.937Z,19.07
2018-03-19T03:16:45.461Z,18.60
2018-03-19T03:19:13.005Z,19.10
2018-03-19T03:21:40.527Z,19.73
2018-03-19T03:24:08.094Z,21.33
2018-03-19T03:26:35.611Z,18.27
2018-03-19T03:29:03.207Z,21.27
2018-03-19T03:31:30.785Z,14.40
2018-03-19T03:33:59.082Z,16.43
2018-03-19T03:36:26.666Z,17.50
2018-03-19T03:38:54.243Z,21.10
2018-03-19T03:41:21.786Z,21.40
2018-03-19T03:43:49.406Z,16.67
2018-03-19T03:46:17.009Z,15.10
2018-03-19T03:48:44.583Z,17.03
2018-03-19T03:51:12.144Z,20.37
2018-03-19T03:53:39.669Z,17.10
2018-03-19T03:56:07.260Z,17.53
2018-03-19T03:58:34.807Z,19.40
2018-03-19T04:01:02.413Z,20.97
2018-03-19T04:03:29.980Z,18.73
2018-03-19T04:05:57.536Z,21.57
2018-03-19T04:08:25.096Z,15.73
2018-03-19T04:10:52.657Z,20.53
2018-03-19T04:13:20.229Z,20.23
2018-03-19T04:15:47.827Z,15.67
2018-03-19T04:18:15.348Z,18.73
2018-03-19T04:20:42.902Z,18.20
2018-03-19T04:23:10.443Z,19.83
2018-03-19T04:25:38.072Z,19.50
2018-03-19T04:28:05.666Z,18.57
2018-03-19T04:30:33.200Z,23.53
2018-03-19T04:33:00.764Z,17.67
2018-03-19T04:35:28.283Z,19.03
2018-03-19T04:37:55.904Z,18.50
2018-03-19T04:40:23.416Z,17.30
2018-03-19T04:42:50.991Z,21.77
2018-03-19T04:45:18.564Z,19.73
2018-03-19T04:47:46.105Z,18.33
2018-03-19T04:50:13.686Z,17.37
2018-03-19T04:52:41.212Z,20.43
2018-03-19T04:55:08.799Z,20.50
2018-03-19T04:57:36.437Z,19.17
2018-03-19T05:00:03.973Z,20.37
2018-03-19T05:02:31.575Z,25.23
2018-03-19T05:04:59.088Z,19.40
2018-03-19T05:07:27.428Z,17.13
2018-03-19T05:09:54.975Z,19.70
2018-03-19T05:12:22.524Z,20.20
2018-03-19T05:14:50.148Z,21.50
2018-03-19T05:17:18.462Z,20.50
2018-03-19T05:19:46.034Z,21.23
2018-03-19T05:22:13.604Z,22.03
2018-03-19T05:24:41.143Z,23.63
2018-03-19T05:27:08.695Z,19.90
2018-03-19T05:29:36.265Z,25.83
2018-03-19T05:32:03.871Z,19.20
2018-03-19T05:34:32.177Z,19.67
2018-03-19T05:36:59.743Z,20.30
2018-03-19T05:39:27.282Z,23.93
2018-03-19T05:41:54.844Z,23.23
2018-03-19T05:44:22.407Z,22.13
2018-03-19T05:46:49.922Z,23.37
2018-03-19T05:49:17.539Z,23.40
2018-03-19T05:51:45.122Z,21.00
2018-03-19T05:54:12.692Z,28.60
2018-03-19T05:56:40.276Z,22.47
2018-03-19T05:59:07.872Z,18.90
2018-03-19T06:01:35.469Z,21.67
2018-03-19T06:04:02.984Z,22.57
2018-03-19T06:06:32.195Z,26.70
2018-03-19T06:08:59.746Z,23.40
2018-03-19T06:11:28.066Z,21.10
2018-03-19T06:13:56.663Z,24.23
2018-03-19T06:16:24.227Z,22.00
2018-03-19T06:18:51.819Z,22.10
2018-03-19T06:21:20.104Z,22.20
2018-03-19T06:23:48.483Z,27.57
2018-03-19T06:26:16.762Z,25.80
2018-03-19T06:28:44.349Z,25.73
2018-03-19T06:31:11.920Z,24.07
2018-03-19T06:33:39.504Z,23.43
2018-03-19T06:36:07.130Z,24.70
2018-03-19T06:38:34.746Z,25.33
2018-03-19T06:41:03.089Z,27.20
2018-03-19T06:43:30.654Z,22.47
2018-03-19T06:45:58.223Z,22.90
2018-03-19T06:48:25.895Z,22.37
2018-03-19T06:50:53.477Z,23.73
2018-03-19T06:53:21.115Z,21.23
2018-03-19T06:55:48.745Z,27.37
2018-03-19T06:58:16.317Z,25.53
2018-03-19T07:00:43.902Z,22.30
2018-03-19T07:03:11.458Z,22.00
2018-03-19T07:05:39.056Z,22.60
2018-03-19T07:08:06.610Z,22.90
2018-03-19T07:10:34.177Z,25.67
2018-03-19T07:13:02.476Z,29.27
2018-03-19T07:15:30.095Z,24.93
2018-03-19T07:17:58.417Z,23.10
2018-03-19T07:20:26.546Z,26.13
2018-03-19T07:22:54.164Z,24.27
2018-03-19T07:25:22.082Z,24.67
2018-03-19T07:27:49.780Z,33.53
2018-03-19T07:30:17.483Z,28.43
2018-03-19T07:32:45.883Z,22.50
2018-03-19T07:35:13.583Z,29.43
2018-03-19T07:37:41.253Z,22.10
2018-03-19T07:40:09.574Z,27.40
2018-03-19T07:42:37.926Z,22.67
2018-03-19T07:45:05.513Z,27.37
2018-03-19T07:47:33.100Z,24.67
2018-03-19T07:50:00.805Z,26.43
2018-03-19T07:52:28.342Z,19.50
2018-03-19T07:54:57.264Z,23.70
2018-03-19T07:57:24.820Z,23.27
2018-03-19T07:59:52.478Z,27.57
2018-03-19T08:02:20.043Z,25.20
2018-03-19T08:04:47.712Z,26.10
2018-03-19T08:07:15.300Z,23.73
2018-03-19T08:09:43.649Z,26.43
2018-03-19T08:12:11.292Z,30.00
2018-03-19T08:14:38.927Z,27.63
2018-03-19T08:17:06.500Z,24.93
2018-03-19T08:19:34.091Z,20.87
2018-03-19T08:22:01.739Z,23.63
2018-03-19T08:24:29.385Z,24.80
2018-03-19T08:27:13.535Z,22.37
2018-03-19T08:29:41.128Z,21.90
2018-03-19T08:32:08.698Z,21.60
2018-03-19T08:34:36.277Z,29.53
2018-03-19T08:37:04.567Z,27.87
2018-03-19T08:39:32.149Z,23.67
2018-03-19T08:41:59.740Z,24.33
2018-03-19T08:44:27.346Z,28.37
2018-03-19T08:46:55.870Z,26.40
2018-03-19T08:49:23.464Z,24.47
2018-03-19T08:51:51.017Z,27.17
2018-03-19T08:54:18.599Z,27.80
2018-03-19T08:56:46.140Z,24.73
2018-03-19T08:59:13.774Z,22.67
2018-03-19T09:01:41.362Z,28.37
2018-03-19T09:04:08.967Z,26.37
2018-03-19T09:06:36.591Z,21.03
2018-03-19T09:09:04.177Z,24.17
2018-03-19T09:11:31.757Z,27.37
2018-03-19T09:13:59.631Z,20.00
2018-03-19T09:16:27.219Z,24.30
2018-03-19T09:18:54.856Z,29.93
2018-03-19T09:21:22.549Z,20.80
2018-03-19T09:23:50.177Z,21.90
2018-03-19T09:26:17.713Z,26.13
2018-03-19T09:28:45.328Z,23.70
2018-03-19T09:31:12.906Z,27.30
2018-03-19T09:33:40.493Z,25.23
2018-03-19T09:36:08.221Z,24.53
2018-03-19T09:38:35.791Z,23.13
2018-03-19T09:41:03.403Z,23.13
2018-03-19T09:43:30.972Z,25.73
2018-03-19T09:45:58.640Z,43.13
2018-03-19T09:48:26.295Z,50.07
2018-03-19T09:50:54.317Z,64.10
2018-03-19T09:53:21.929Z,46.10
2018-03-19T09:55:49.488Z,39.87
2018-03-19T09:58:17.020Z,48.47
2018-03-19T10:00:44.608Z,52.73
2018-03-19T10:03:12.169Z,27.03
2018-03-19T10:05:39.934Z,25.37
2018-03-19T10:08:07.590Z,24.53
2018-03-19T10:10:35.216Z,27.17
2018-03-19T10:13:02.815Z,27.07
2018-03-19T10:15:30.667Z,31.30
2018-03-19T10:17:58.255Z,27.37
2018-03-19T10:20:26.141Z,26.57
2018-03-19T10:22:53.886Z,26.83
2018-03-19T10:25:21.910Z,26.43
2018-03-19T10:27:49.464Z,28.93
2018-03-19T10:30:18.102Z,20.93
2018-03-19T10:32:45.728Z,27.63
2018-03-19T10:35:13.272Z,27.87
2018-03-19T10:37:41.045Z,27.33
2018-03-19T10:40:08.631Z,24.17
2018-03-19T10:42:36.284Z,26.83
2018-03-19T10:45:03.903Z,28.40
2018-03-19T10:47:32.240Z,26.93
2018-03-19T10:50:00.300Z,25.17
2018-03-19T10:52:27.877Z,26.10
2018-03-19T10:54:55.519Z,25.17
2018-03-19T10:57:23.198Z,24.53
2018-03-19T10:59:50.830Z,27.57
2018-03-19T11:02:24.052Z,27.20
2018-03-19T11:04:52.683Z,23.03
2018-03-19T11:07:26.782Z,32.20
2018-03-19T11:09:54.416Z,25.70
2018-03-19T11:12:22.085Z,22.77
2018-03-19T11:14:49.642Z,32.00
2018-03-19T11:17:17.236Z,25.13
2018-03-19T11:19:44.799Z,23.07
2018-03-19T11:22:13.132Z,29.57
2018-03-19T11:24:40.733Z,26.53
2018-03-19T11:27:08.310Z,27.37
2018-03-19T11:29:35.923Z,26.60
2018-03-19T11:32:03.580Z,25.73
2018-03-19T11:34:31.192Z,25.03
2018-03-19T11:36:58.798Z,22.77
2018-03-19T11:39:26.511Z,25.43
2018-03-19T11:41:54.258Z,25.80
2018-03-19T11:44:21.844Z,23.97
2018-03-19T11:46:49.629Z,28.80
2018-03-19T11:49:18.466Z,24.77
2018-03-19T11:51:46.101Z,28.17
2018-03-19T11:54:13.725Z,24.67
2018-03-19T11:56:41.382Z,26.13
2018-03-19T11:59:08.903Z,24.47
2018-03-19T12:01:36.540Z,22.67
2018-03-19T12:04:04.119Z,31.40
2018-03-19T12:06:31.967Z,27.57
2018-03-19T12:08:59.549Z,23.70
2018-03-19T12:11:27.213Z,24.53
2018-03-19T12:13:54.872Z,28.17
2018-03-19T12:16:22.787Z,23.93
2018-03-19T12:18:50.340Z,25.20
2018-03-19T12:21:18.004Z,23.73
2018-03-19T12:23:45.539Z,26.40
2018-03-19T12:26:13.441Z,30.00
2018-03-19T12:28:41.037Z,31.73
2018-03-19T12:31:08.654Z,27.03
2018-03-19T12:33:36.249Z,24.47
2018-03-19T12:36:03.924Z,29.33
2018-03-19T12:38:31.523Z,25.70
2018-03-19T12:40:59.700Z,29.57
2018-03-19T12:43:27.338Z,24.27
2018-03-19T12:45:54.880Z,24.60
2018-03-19T12:48:22.460Z,28.87
2018-03-19T12:50:50.134Z,24.80
2018-03-19T12:53:17.668Z,27.33
2018-03-19T12:55:45.296Z,29.13
2018-03-19T12:58:12.841Z,24.43
2018-03-19T13:00:40.484Z,23.27
2018-03-19T13:03:08.082Z,23.13
2018-03-19T13:05:35.698Z,25.17
2018-03-19T13:08:04.131Z,27.73
2018-03-19T13:10:31.694Z,26.17
2018-03-19T13:12:59.293Z,26.00
2018-03-19T13:15:27.481Z,25.93
2018-03-19T13:17:55.751Z,26.30
2018-03-19T13:20:24.157Z,25.80
2018-03-19T13:22:52.559Z,25.57
2018-03-19T13:25:20.929Z,23.23
2018-03-19T13:27:53.759Z,24.53
2018-03-19T13:30:21.544Z,26.23
2018-03-19T13:32:50.987Z,26.47
2018-03-19T13:35:18.629Z,31.67
2018-03-19T13:37:47.025Z,28.17
2018-03-19T13:40:14.618Z,28.70
2018-03-19T13:42:42.201Z,25.47
2018-03-19T13:45:10.525Z,26.07
2018-03-19T13:47:38.285Z,25.57
2018-03-19T13:50:05.852Z,26.40
2018-03-19T13:52:33.538Z,24.87
2018-03-19T13:55:01.809Z,30.17
2018-03-19T13:57:30.136Z,29.27
2018-03-19T13:59:57.744Z,25.30
2018-03-19T14:02:25.334Z,30.07
2018-03-19T14:04:53.641Z,33.70
2018-03-19T14:07:21.233Z,30.17
2018-03-19T14:09:48.958Z,33.83
2018-03-19T14:12:16.520Z,27.03
2018-03-19T14:14:44.112Z,29.63
2018-03-19T14:17:11.857Z,28.00
2018-03-19T14:19:40.250Z,31.20
2018-03-19T14:22:07.824Z,27.17
2018-03-19T14:24:35.512Z,28.00
2018-03-19T14:27:03.138Z,28.97
2018-03-19T14:29:30.657Z,26.70
2018-03-19T14:31:59.044Z,28.10
2018-03-19T14:34:27.477Z,34.07
2018-03-19T14:36:55.036Z,28.47
2018-03-19T14:39:22.600Z,31.50
2018-03-19T14:41:50.319Z,32.10
2018-03-19T14:44:18.033Z,32.80
2018-03-19T14:46:45.628Z,27.50
2018-03-19T14:49:13.964Z,34.20
2018-03-19T14:51:41.521Z,26.60
2018-03-19T14:54:09.463Z,28.27
2018-03-19T14:56:37.192Z,27.40
2018-03-19T14:59:05.008Z,26.10
2018-03-19T15:01:32.722Z,28.63
2018-03-19T15:04:00.282Z,26.53
2018-03-19T15:06:28.629Z,25.43
2018-03-19T15:08:56.185Z,22.47
2018-03-19T15:11:23.708Z,31.63
2018-03-19T15:13:51.460Z,29.17
2018-03-19T15:16:19.090Z,30.47
2018-03-19T15:18:46.863Z,32.17
2018-03-19T15:21:15.224Z,26.07
2018-03-19T15:23:42.849Z,29.07
2018-03-19T15:26:10.426Z,32.27
2018-03-19T15:28:38.377Z,26.07
2018-03-19T15:31:05.917Z,28.53
2018-03-19T15:33:33.475Z,28.70
2018-03-19T15:36:01.056Z,28.37
2018-03-19T15:38:28.648Z,25.80
2018-03-19T15:40:56.211Z,28.60
2018-03-19T15:43:23.790Z,36.97
2018-03-19T15:45:51.380Z,35.17
2018-03-19T15:48:19.312Z,32.07
2018-03-19T15:50:46.863Z,24.30
2018-03-19T15:53:14.506Z,30.27
2018-03-19T15:55:42.069Z,29.27
2018-03-19T15:58:09.833Z,28.73
2018-03-19T16:00:37.492Z,29.10
2018-03-19T16:03:05.057Z,32.57
2018-03-19T16:05:33.584Z,25.40
2018-03-19T16:08:01.189Z,26.07
2018-03-19T16:10:29.118Z,26.33
2018-03-19T16:12:57.049Z,24.77
2018-03-19T16:15:24.629Z,28.20
2018-03-19T16:17:53.132Z,23.80
2018-03-19T16:20:20.758Z,27.53
2018-03-19T16:22:48.276Z,24.37
2018-03-19T16:25:15.836Z,25.33
2018-03-19T16:27:43.554Z,23.03
2018-03-19T16:30:11.204Z,21.40
2018-03-19T16:32:38.764Z,24.17
2018-03-19T16:35:06.325Z,20.90
2018-03-19T16:37:33.875Z,21.77
2018-03-19T16:40:01.500Z,20.67
2018-03-19T16:42:29.110Z,27.43
2018-03-19T16:44:56.683Z,27.17
2018-03-19T16:47:24.227Z,22.67
2018-03-19T16:49:51.776Z,21.57
2018-03-19T16:52:19.429Z,19.20
2018-03-19T16:54:46.973Z,22.50
2018-03-19T16:57:14.583Z,18.70
2018-03-19T16:59:42.197Z,25.00
2018-03-19T17:02:09.763Z,23.40
2018-03-19T17:04:37.407Z,21.37
2018-03-19T17:07:05.027Z,22.47
2018-03-19T17:09:32.589Z,22.27
2018-03-19T17:12:00.888Z,20.03
2018-03-19T17:14:28.451Z,19.73
2018-03-19T17:16:56.051Z,17.80
2018-03-19T17:19:24.369Z,21.40
2018-03-19T17:21:51.957Z,17.97
2018-03-19T17:24:19.576Z,15.33
2018-03-19T17:26:47.200Z,18.87
2018-03-19T17:29:14.811Z,18.60
2018-03-19T17:31:43.124Z,21.57
2018-03-19T17:34:10.799Z,15.73
2018-03-19T17:36:38.364Z,16.80
2018-03-19T17:39:05.921Z,15.43
2018-03-19T17:41:33.527Z,16.00
2018-03-19T17:44:01.863Z,16.53
2018-03-19T17:46:29.469Z,17.07
2018-03-19T17:48:57.031Z,14.57
2018-03-19T17:51:24.904Z,17.03
2018-03-19T17:53:52.515Z,18.30
2018-03-19T17:56:20.877Z,19.13
2018-03-19T17:58:48.511Z,19.07
2018-03-19T18:01:16.099Z,17.47
2018-03-19T18:03:43.622Z,17.13
2018-03-19T18:06:11.197Z,31.20
2018-03-19T18:08:39.296Z,23.10
2018-03-19T18:11:06.821Z,16.77
2018-03-19T18:13:34.375Z,20.00
2018-03-19T18:16:01.910Z,17.87
2018-03-19T18:18:29.484Z,20.83
2018-03-19T18:20:57.042Z,25.13
2018-03-19T18:23:24.619Z,25.17
2018-03-19T18:25:52.982Z,17.27
2018-03-19T18:28:20.607Z,19.10
2018-03-19T18:30:48.213Z,16.67
2018-03-19T18:33:16.587Z,17.83
2018-03-19T18:35:44.912Z,17.20
2018-03-19T18:38:12.451Z,21.47
2018-03-19T18:40:39.981Z,16.97
2018-03-19T18:43:07.539Z,21.47
2018-03-19T18:45:35.064Z,19.83
2018-03-19T18:48:02.639Z,21.10
2018-03-19T18:50:30.205Z,16.57
2018-03-19T18:52:57.806Z,24.53
2018-03-19T18:55:25.352Z,22.57
2018-03-19T18:57:52.929Z,27.57
2018-03-19T19:00:20.526Z,18.37
2018-03-19T19:02:48.186Z,23.20
2018-03-19T19:05:15.721Z,19.93
2018-03-19T19:07:43.296Z,19.70
2018-03-19T19:10:10.890Z,20.07
2018-03-19T19:12:39.327Z,18.97
2018-03-19T19:15:06.954Z,20.57
2018-03-19T19:17:34.546Z,20.20
2018-03-19T19:20:02.091Z,17.50
2018-03-19T19:22:29.602Z,20.27
2018-03-19T19:24:57.175Z,18.53
2018-03-19T19:27:25.573Z,21.10
2018-03-19T19:29:53.949Z,19.53
2018-03-19T19:32:21.571Z,19.93
2018-03-19T19:34:49.202Z,20.00
2018-03-19T19:37:16.740Z,21.43
2018-03-19T19:39:44.317Z,20.83
2018-03-19T19:42:11.886Z,20.70
2018-03-19T19:44:39.450Z,19.80
2018-03-19T19:47:07.084Z,18.03
2018-03-19T19:49:34.617Z,23.13
2018-03-19T19:52:02.336Z,19.50
2018-03-19T19:54:29.878Z,22.37
2018-03-19T19:56:57.429Z,29.03
2018-03-19T19:59:25.025Z,19.37
2018-03-19T20:01:52.620Z,18.77
2018-03-19T20:04:20.251Z,23.80
2018-03-19T20:06:47.819Z,18.60
2018-03-19T20:09:15.453Z,24.50
2018-03-19T20:11:42.987Z,19.87
2018-03-19T20:14:10.562Z,19.70
2018-03-19T20:16:38.107Z,24.33
2018-03-19T20:19:05.742Z,25.90
2018-03-19T20:21:33.296Z,23.63
2018-03-19T20:24:00.858Z,21.07
2018-03-19T20:26:28.448Z,18.93
2018-03-19T20:28:55.979Z,34.87
2018-03-19T20:31:24.334Z,27.53
2018-03-19T20:33:51.872Z,25.87
2018-03-19T20:36:19.423Z,21.77
2018-03-19T20:38:46.981Z,24.03
2018-03-19T20:41:14.562Z,21.80
2018-03-19T20:43:42.145Z,22.00
2018-03-19T20:46:09.730Z,19.73
2018-03-19T20:48:38.054Z,21.33
2018-03-19T20:51:05.613Z,21.30
2018-03-19T20:53:33.212Z,18.80
2018-03-19T20:56:00.940Z,21.03
2018-03-19T20:58:28.544Z,20.60
2018-03-19T21:00:56.846Z,20.60
2018-03-19T21:03:24.409Z,25.13
2018-03-19T21:05:51.971Z,19.83
2018-03-19T21:08:19.525Z,21.63
2018-03-19T21:10:47.990Z,26.03
2018-03-19T21:13:16.314Z,28.90
2018-03-19T21:15:43.883Z,27.97
2018-03-19T21:18:11.596Z,23.47
2018-03-19T21:20:39.926Z,20.23
2018-03-19T21:23:07.465Z,21.43
2018-03-19T21:25:35.061Z,25.97
2018-03-19T21:28:02.665Z,22.93
2018-03-19T21:30:30.209Z,27.87
2018-03-19T21:32:57.783Z,27.03
2018-03-19T21:35:25.324Z,26.23
2018-03-19T21:37:53.655Z,25.23
2018-03-19T21:40:21.208Z,23.20
2018-03-19T21:42:48.743Z,23.70
2018-03-19T21:45:16.308Z,22.43
2018-03-19T21:47:43.830Z,21.90
2018-03-19T21:50:12.183Z,22.43
2018-03-19T21:52:39.788Z,31.80
2018-03-19T21:55:07.387Z,28.10
2018-03-19T21:57:35.016Z,23.80
2018-03-19T22:00:02.688Z,24.00
2018-03-19T22:02:30.271Z,27.40
2018-03-19T22:04:57.884Z,23.77
2018-03-19T22:07:26.220Z,27.23
2018-03-19T22:09:54.764Z,23.07
2018-03-19T22:12:22.346Z,21.57
2018-03-19T22:14:49.896Z,21.00
2018-03-19T22:17:17.530Z,22.17
2018-03-19T22:19:45.092Z,25.77
2018-03-19T22:22:13.422Z,23.17
2018-03-19T22:24:41.034Z,22.07
2018-03-19T22:27:09.356Z,24.33
2018-03-19T22:29:36.962Z,21.87
2018-03-19T22:32:04.496Z,21.00
2018-03-19T22:34:32.093Z,22.83
2018-03-19T22:36:59.670Z,20.83
2018-03-19T22:39:27.238Z,22.63
2018-03-19T22:41:54.787Z,25.80
2018-03-19T22:44:22.366Z,22.93
2018-03-19T22:46:49.927Z,21.23
2018-03-19T22:49:17.484Z,25.67
2018-03-19T22:51:45.043Z,23.10
2018-03-19T22:54:12.635Z,22.60
2018-03-19T22:56:40.178Z,24.40
2018-03-19T22:59:07.753Z,20.40
2018-03-19T23:01:35.344Z,24.20
2018-03-19T23:04:02.929Z,18.50
2018-03-19T23:06:30.526Z,24.00
2018-03-19T23:08:58.130Z,20.83
2018-03-19T23:11:25.743Z,17.93
2018-03-19T23:13:53.307Z,18.33
2018-03-19T23:16:20.907Z,20.00
2018-03-19T23:18:49.252Z,24.73
2018-03-19T23:21:16.788Z,18.83
2018-03-19T23:23:44.347Z,20.17
2018-03-19T23:26:11.923Z,19.10
2018-03-19T23:28:39.443Z,18.03
2018-03-19T23:31:07.083Z,20.23
2018-03-19T23:33:34.711Z,23.60
2018-03-19T23:36:02.311Z,20.23
2018-03-19T23:38:29.912Z,23.87
2018-03-19T23:40:57.492Z,20.73
2018-03-19T23:43:25.045Z,18.37
2018-03-19T23:45:52.622Z,23.53
2018-03-19T23:48:20.202Z,23.77
2018-03-19T23:50:47.786Z,20.53
2018-03-19T23:53:15.639Z,20.07
2018-03-19T23:55:43.244Z,21.63
2018-03-19T23:58:10.766Z,20.07
